Time;durP1;ratioP1;P1;durP2;ratioP2;P2;SDS_P1;SDS_P2;PMS_P1;PMS_P2;Temp;Humidity;BMP_temperature;BMP_pressure;BME280_temperature;BME280_humidity;BME280_pressure;Samples;Min_cycle;Max_cycle;Signal;HPM_P1;HPM_P2
2023/09/14 00:01:37;;;;;;;6.27;3.73;;;15.20;99.90;;;16.31;100.00;98625.16;5042301;28;20469;-78
2023/09/14 00:04:06;;;;;;;7.93;3.57;;;15.20;99.90;;;16.28;100.00;98625.59;5038850;28;20489;-77
2023/09/14 00:06:37;;;;;;;4.83;3.53;;;15.30;99.90;;;16.22;100.00;98636.94;5042090;28;21194;-77
2023/09/14 00:09:07;;;;;;;3.80;3.00;;;15.40;99.90;;;16.14;100.00;98632.72;5040350;28;20540;-76
2023/09/14 00:11:38;;;;;;;6.03;3.50;;;15.30;99.90;;;16.15;100.00;98634.34;5039557;28;20460;-76
2023/09/14 00:14:11;;;;;;;4.97;3.10;;;15.20;99.90;;;16.17;100.00;98634.13;5042647;28;20479;-77
2023/09/14 00:16:41;;;;;;;6.50;4.10;;;15.10;99.90;;;16.11;100.00;98633.94;5041350;28;20461;-77
2023/09/14 00:19:12;;;;;;;5.40;3.40;;;15.10;99.90;;;16.06;100.00;98632.97;5040271;28;21040;-76
2023/09/14 00:21:42;;;;;;;4.07;3.20;;;15.20;99.90;;;16.04;100.00;98634.97;5039951;28;20468;-78
2023/09/14 00:24:11;;;;;;;5.50;2.70;;;15.00;99.90;;;15.95;100.00;98625.66;5044850;28;20489;-77
2023/09/14 00:26:41;;;;;;;7.07;3.60;;;15.10;99.90;;;15.95;100.00;98631.75;5044491;28;20459;-76
2023/09/14 00:29:12;;;;;;;5.50;2.93;;;15.00;99.90;;;15.99;100.00;98627.69;5045737;28;20460;-76
2023/09/14 00:31:41;;;;;;;6.13;3.50;;;14.90;99.90;;;15.96;100.00;98624.66;5042488;28;20524;-76
2023/09/14 00:34:11;;;;;;;7.20;3.53;;;14.90;99.90;;;15.94;100.00;98631.97;5042894;28;20467;-76
2023/09/14 00:36:39;;;;;;;5.27;3.23;;;14.90;99.90;;;15.93;100.00;98627.72;5042855;28;20522;-76
2023/09/14 00:39:11;;;;;;;7.00;3.80;;;14.80;99.90;;;15.86;100.00;98624.28;5040696;28;20960;-77
2023/09/14 00:41:41;;;;;;;4.93;3.63;;;14.80;99.90;;;15.81;100.00;98632.00;5044340;28;20491;-78
2023/09/14 00:44:11;;;;;;;6.20;3.50;;;14.90;99.90;;;15.78;100.00;98627.13;5046011;28;20596;-78
2023/09/14 00:46:42;;;;;;;7.77;3.40;;;14.80;99.90;;;15.79;100.00;98632.19;5048148;28;20494;-77
2023/09/14 00:49:12;;;;;;;13.07;3.37;;;14.80;99.90;;;15.77;100.00;98628.94;5046187;28;20572;-77
2023/09/14 00:51:40;;;;;;;4.53;3.13;;;14.70;99.90;;;15.75;100.00;98635.47;5046380;28;21059;-78
2023/09/14 00:54:11;;;;;;;4.23;2.87;;;14.70;99.90;;;15.64;100.00;98633.44;5047699;28;20465;-78
2023/09/14 00:56:41;;;;;;;3.90;2.77;;;14.70;99.90;;;15.51;100.00;98619.25;5047372;28;20846;-77
2023/09/14 00:59:12;;;;;;;10.83;3.13;;;14.70;99.90;;;15.41;100.00;98623.28;5045508;28;20469;-78
2023/09/14 01:01:43;;;;;;;6.80;3.00;;;14.60;99.90;;;15.45;100.00;98620.03;5043162;28;20473;-78
2023/09/14 01:04:13;;;;;;;3.20;2.60;;;14.50;99.90;;;15.40;100.00;98619.84;5043020;28;20481;-78
2023/09/14 01:06:43;;;;;;;4.73;3.20;;;14.40;99.90;;;15.41;100.00;98626.72;5043201;28;20561;-79
2023/09/14 01:09:14;;;;;;;7.63;3.30;;;14.30;99.90;;;15.37;100.00;98629.97;5044215;28;20464;-78
2023/09/14 01:11:44;;;;;;;6.93;3.00;;;14.40;99.90;;;15.37;100.00;98632.63;5042878;28;20486;-78
2023/09/14 01:14:24;;;;;;;9.13;3.30;;;14.40;99.90;;;15.37;100.00;98646.63;5042640;28;20480;-78
2023/09/14 01:17:07;;;;;;;11.57;4.40;;;14.40;99.90;;;15.38;100.00;98634.22;5042075;28;21045;-78
2023/09/14 01:19:51;;;;;;;6.73;3.20;;;14.20;99.90;;;15.32;100.00;98630.56;5039785;28;20581;-78
2023/09/14 01:22:43;;;;;;;4.90;3.43;;;14.30;99.90;;;15.24;100.00;98633.41;5042807;28;20466;-79
2023/09/14 01:25:39;;;;;;;6.50;3.30;;;14.40;99.90;;;15.27;100.00;98633.00;5043704;28;20560;-77
2023/09/14 01:28:09;;;;;;;3.23;2.50;;;14.20;99.90;;;15.22;100.00;98629.34;5049261;28;20540;-76
2023/09/14 01:30:40;;;;;;;5.73;2.73;;;14.10;99.90;;;15.20;100.00;98639.31;5048225;28;20510;-76
2023/09/14 01:33:15;;;;;;;7.90;2.83;;;14.10;99.90;;;15.13;100.00;98642.72;5047943;28;20517;-77
2023/09/14 01:35:53;;;;;;;7.47;2.87;;;14.20;99.90;;;15.16;100.00;98641.53;5045045;28;20461;-77
2023/09/14 01:38:23;;;;;;;9.33;3.30;;;14.20;99.90;;;15.12;100.00;98640.31;5045286;28;20460;-77
2023/09/14 01:40:54;;;;;;;12.10;3.90;;;14.20;99.90;;;15.10;100.00;98637.03;5044135;28;20564;-78
2023/09/14 01:43:25;;;;;;;5.43;2.80;;;14.10;99.90;;;15.07;100.00;98637.44;5042229;28;20454;-78
2023/09/14 01:45:56;;;;;;;4.00;2.40;;;14.20;99.90;;;15.04;100.00;98632.59;5041925;28;20590;-78
2023/09/14 01:48:26;;;;;;;7.20;2.83;;;14.00;99.90;;;14.97;100.00;98639.66;5041237;28;20674;-80
2023/09/14 01:50:56;;;;;;;7.50;2.80;;;13.90;99.90;;;14.93;100.00;98646.34;5046455;28;20531;-79
2023/09/14 01:53:26;;;;;;;6.07;2.67;;;13.90;99.90;;;14.92;100.00;98645.53;5048232;28;20462;-79
2023/09/14 01:55:58;;;;;;;3.60;2.63;;;13.80;99.90;;;14.91;100.00;98643.91;5043568;28;20538;-79
2023/09/14 01:58:28;;;;;;;6.13;3.07;;;13.90;99.90;;;14.86;100.00;98641.06;5046379;28;20465;-78
2023/09/14 02:00:59;;;;;;;8.70;3.10;;;13.90;99.90;;;14.85;100.00;98642.09;5043356;28;20454;-79
2023/09/14 02:03:29;;;;;;;3.90;2.40;;;13.90;99.90;;;14.78;100.00;98643.06;5045233;28;20468;-78
2023/09/14 02:06:02;;;;;;;5.53;3.13;;;14.00;99.90;;;14.79;100.00;98653.41;5041989;28;20497;-78
2023/09/14 02:08:32;;;;;;;7.70;2.60;;;13.90;99.90;;;14.74;100.00;98647.94;5045404;28;20452;-79
2023/09/14 02:11:02;;;;;;;4.37;2.93;;;14.00;99.90;;;14.69;100.00;98645.06;5044258;28;21217;-78
2023/09/14 02:13:31;;;;;;;6.80;2.53;;;13.90;99.90;;;14.75;100.00;98643.47;5047191;28;20453;-78
2023/09/14 02:16:01;;;;;;;4.13;2.70;;;13.80;99.90;;;14.74;100.00;98647.13;5044303;28;20471;-78
2023/09/14 02:18:32;;;;;;;9.17;2.87;;;13.70;99.90;;;14.72;100.00;98649.94;5047864;28;20836;-78
2023/09/14 02:21:01;;;;;;;5.60;2.77;;;13.70;99.90;;;14.74;100.00;98652.38;5042634;28;20466;-78
2023/09/14 02:23:31;;;;;;;4.90;3.00;;;13.70;99.90;;;14.72;100.00;98646.47;5043151;28;20468;-78
2023/09/14 02:26:01;;;;;;;8.57;2.77;;;13.60;99.90;;;14.68;100.00;98653.19;5040222;28;21020;-78
2023/09/14 02:28:32;;;;;;;3.17;2.63;;;13.50;99.90;;;14.64;100.00;98649.31;5043386;28;20468;-78
2023/09/14 02:31:07;;;;;;;8.57;2.83;;;13.50;99.90;;;14.56;100.00;98651.09;5045703;28;20532;-77
2023/09/14 02:33:38;;;;;;;4.57;2.90;;;13.70;99.90;;;14.56;100.00;98651.09;5044595;28;20544;-78
2023/09/14 02:36:07;;;;;;;7.53;2.93;;;13.60;99.90;;;14.59;100.00;98655.97;5043521;28;20469;-78
2023/09/14 02:38:36;;;;;;;5.33;3.47;;;13.60;99.90;;;14.51;100.00;98653.50;5047232;28;20476;-78
2023/09/14 02:41:06;;;;;;;5.53;3.17;;;13.50;99.90;;;14.41;100.00;98650.44;5043000;28;20465;-78
2023/09/14 02:43:37;;;;;;;5.10;2.73;;;13.50;99.90;;;14.35;100.00;98647.78;5041167;28;20471;-79
2023/09/14 02:46:08;;;;;;;8.63;2.70;;;13.50;99.90;;;14.36;100.00;98654.69;5039375;28;20919;-78
2023/09/14 02:48:38;;;;;;;8.20;2.67;;;13.50;99.90;;;14.44;100.00;98651.84;5041480;28;21027;-78
2023/09/14 02:51:09;;;;;;;3.40;2.70;;;13.40;99.90;;;14.39;100.00;98659.53;5040807;28;20480;-77
2023/09/14 02:53:38;;;;;;;4.90;2.50;;;13.40;99.90;;;14.32;100.00;98659.47;5043956;28;20987;-78
2023/09/14 02:56:11;;;;;;;5.63;2.07;;;13.50;99.90;;;14.30;100.00;98661.47;5047893;28;20481;-78
2023/09/14 02:58:41;;;;;;;14.07;2.33;;;13.40;99.90;;;14.30;100.00;98656.22;5049392;28;20893;-79
2023/09/14 03:01:11;;;;;;;4.17;2.57;;;13.30;99.90;;;14.26;100.00;98660.28;5046016;28;21042;-78
2023/09/14 03:03:42;;;;;;;5.13;3.00;;;13.10;99.90;;;14.20;100.00;98662.84;5044048;28;21013;-78
2023/09/14 03:06:12;;;;;;;9.83;2.70;;;13.00;99.90;;;14.11;100.00;98662.22;5043370;28;20552;-78
2023/09/14 03:08:42;;;;;;;4.77;2.40;;;13.10;99.90;;;14.11;100.00;98663.03;5046031;28;20542;-78
2023/09/14 03:11:13;;;;;;;10.63;2.17;;;13.00;99.90;;;14.04;100.00;98661.34;5046667;28;20516;-78
2023/09/14 03:13:44;;;;;;;3.40;2.37;;;13.00;99.90;;;14.03;100.00;98670.25;5043965;28;20496;-80
2023/09/14 03:16:17;;;;;;;3.00;2.37;;;13.00;99.90;;;13.98;100.00;98678.72;5040590;28;20473;-79
2023/09/14 03:18:48;;;;;;;8.20;2.20;;;13.00;99.90;;;14.00;100.00;98673.25;5045848;28;20491;-80
2023/09/14 03:21:26;;;;;;;4.80;2.57;;;13.00;99.90;;;14.03;100.00;98680.75;5044797;28;20453;-79
2023/09/14 03:23:57;;;;;;;4.47;2.50;;;13.00;99.90;;;14.02;100.00;98689.69;5043144;28;20461;-79
2023/09/14 03:26:30;;;;;;;6.80;2.67;;;13.00;99.90;;;13.97;100.00;98686.81;5043529;28;20509;-79
2023/09/14 03:29:01;;;;;;;5.13;2.13;;;12.90;99.90;;;13.95;100.00;98691.44;5042016;28;20469;-80
2023/09/14 03:31:30;;;;;;;14.00;2.43;;;13.00;99.90;;;13.97;100.00;98697.31;5042072;28;20959;-79
2023/09/14 03:33:59;;;;;;;4.63;2.60;;;12.80;99.90;;;14.00;100.00;98699.56;5044984;28;20464;-79
2023/09/14 03:36:30;;;;;;;21.27;2.90;;;12.80;99.90;;;14.01;100.00;98694.13;5044968;28;20473;-79
2023/09/14 03:38:59;;;;;;;4.37;2.37;;;12.80;99.90;;;14.06;100.00;98693.53;5049304;28;20465;-79
2023/09/14 03:41:31;;;;;;;8.60;2.90;;;12.90;99.90;;;14.03;100.00;98693.91;5046395;28;20518;-80
2023/09/14 03:44:02;;;;;;;4.10;2.63;;;12.90;99.90;;;13.90;100.00;98691.19;5044552;28;20486;-79
2023/09/14 03:46:32;;;;;;;2.97;2.20;;;13.00;99.90;;;13.88;100.00;98690.59;5044387;28;20499;-79
2023/09/14 03:49:06;;;;;;;3.10;2.00;;;12.90;99.90;;;13.82;100.00;98692.16;5046514;28;20924;-80
2023/09/14 03:51:36;;;;;;;2.57;2.20;;;12.90;99.90;;;13.71;100.00;98691.88;5044807;28;20850;-79
2023/09/14 03:54:08;;;;;;;4.37;2.40;;;13.00;99.90;;;13.68;100.00;98698.31;5042839;28;20541;-79
2023/09/14 03:56:40;;;;;;;3.87;2.67;;;13.00;99.90;;;13.71;100.00;98699.78;5045657;28;20460;-79
2023/09/14 03:59:10;;;;;;;3.73;2.20;;;12.90;99.90;;;13.70;100.00;98691.06;5045391;28;20465;-79
2023/09/14 04:01:41;;;;;;;3.17;2.43;;;12.90;99.90;;;13.71;100.00;98697.16;5045405;28;20932;-79
2023/09/14 04:04:10;;;;;;;5.50;1.70;;;12.80;99.90;;;13.65;100.00;98693.44;5045390;28;20524;-80
2023/09/14 04:06:41;;;;;;;2.73;2.27;;;12.60;99.90;;;13.52;100.00;98698.59;5047204;28;20496;-78
2023/09/14 04:09:10;;;;;;;2.40;2.20;;;12.60;99.90;;;13.47;100.00;98691.28;5044371;28;20461;-79
2023/09/14 04:11:42;;;;;;;7.80;2.10;;;12.70;99.90;;;13.51;100.00;98695.16;5048024;28;20453;-79
2023/09/14 04:14:12;;;;;;;4.05;2.53;;;12.50;99.90;;;13.52;100.00;98694.16;5042442;28;20454;-79
2023/09/14 04:16:43;;;;;;;3.53;2.33;;;12.60;99.90;;;13.42;100.00;98698.94;5042313;28;20218;-79
2023/09/14 04:19:13;;;;;;;11.57;2.40;;;12.70;99.90;;;13.43;100.00;98694.50;5044642;28;20952;-78
2023/09/14 04:21:43;;;;;;;4.00;2.47;;;12.70;99.90;;;13.38;100.00;98692.41;5046346;28;20543;-78
2023/09/14 04:24:12;;;;;;;3.30;2.43;;;12.70;99.90;;;13.44;100.00;98698.72;5042644;28;21266;-78
2023/09/14 04:26:44;;;;;;;3.33;2.90;;;12.70;99.90;;;13.46;100.00;98696.72;5044018;28;20872;-78
2023/09/14 04:29:15;;;;;;;2.37;2.17;;;12.50;99.90;;;13.46;100.00;98700.19;5042762;28;20448;-78
2023/09/14 04:31:45;;;;;;;3.60;2.50;;;12.60;99.90;;;13.47;100.00;98701.78;5044296;28;20511;-77
2023/09/14 04:34:15;;;;;;;9.23;2.73;;;12.50;99.90;;;13.49;100.00;98705.06;5045399;28;20999;-79
2023/09/14 04:36:45;;;;;;;3.10;2.23;;;12.50;99.90;;;13.36;100.00;98702.28;5045878;28;20469;-79
2023/09/14 04:39:16;;;;;;;2.60;2.10;;;12.70;99.90;;;13.35;100.00;98707.75;5046921;28;20453;-79
2023/09/14 04:41:46;;;;;;;5.77;2.40;;;12.50;99.90;;;13.26;100.00;98709.66;5047734;28;20552;-79
2023/09/14 04:44:16;;;;;;;3.47;2.50;;;12.50;99.90;;;13.28;100.00;98704.25;5047315;28;20457;-78
2023/09/14 04:46:45;;;;;;;3.00;2.10;;;12.50;99.90;;;13.28;100.00;98704.25;5048846;28;20499;-79
2023/09/14 04:49:16;;;;;;;3.57;2.10;;;12.50;99.90;;;13.28;100.00;98707.69;5045110;28;20488;-79
2023/09/14 04:51:48;;;;;;;3.67;2.23;;;12.40;99.90;;;13.26;100.00;98708.88;5047915;28;20476;-79
2023/09/14 04:54:19;;;;;;;3.43;2.67;;;12.50;99.90;;;13.26;100.00;98704.41;5050162;28;20557;-79
2023/09/14 04:56:51;;;;;;;7.40;2.50;;;12.40;99.90;;;13.20;100.00;98714.84;5048066;28;20456;-78
2023/09/14 04:59:24;;;;;;;3.43;2.33;;;12.40;99.90;;;13.14;100.00;98716.44;5044527;28;20453;-79
2023/09/14 05:01:53;;;;;;;2.93;2.00;;;12.50;99.90;;;13.09;100.00;98713.53;5050653;28;20444;-79
2023/09/14 05:04:24;;;;;;;4.23;2.47;;;12.50;99.90;;;13.14;100.00;98721.69;5043798;28;20461;-79
2023/09/14 05:06:55;;;;;;;14.60;3.27;;;12.40;99.90;;;13.10;100.00;98716.00;5045521;28;20472;-79
2023/09/14 05:09:24;;;;;;;3.53;2.20;;;12.40;99.90;;;13.13;100.00;98708.72;5048588;28;20469;-78
2023/09/14 05:11:56;;;;;;;2.77;2.13;;;12.40;99.90;;;13.13;100.00;98714.78;5048425;28;20464;-79
2023/09/14 05:14:26;;;;;;;5.97;2.30;;;12.40;99.90;;;13.07;100.00;98712.88;5045706;28;20520;-79
2023/09/14 05:16:56;;;;;;;7.97;1.80;;;12.30;99.90;;;13.15;100.00;98707.56;5046849;28;20526;-79
2023/09/14 05:19:25;;;;;;;3.93;2.00;;;12.30;99.90;;;13.09;100.00;98713.53;5048384;28;21060;-79
2023/09/14 05:21:54;;;;;;;4.57;1.97;;;12.20;99.90;;;13.15;100.00;98715.44;5046887;28;20654;-78
2023/09/14 05:24:24;;;;;;;11.00;2.83;;;12.20;99.90;;;13.12;100.00;98718.41;5045228;28;20824;-79
2023/09/14 05:26:55;;;;;;;6.73;1.70;;;12.20;99.90;;;13.03;100.00;98724.75;5047943;28;20482;-78
2023/09/14 05:29:25;;;;;;;3.00;2.20;;;12.20;99.90;;;13.08;100.00;98723.19;5047857;28;20461;-79
2023/09/14 05:31:56;;;;;;;4.13;2.27;;;12.10;99.90;;;13.03;100.00;98725.56;5045972;28;20469;-79
2023/09/14 05:34:25;;;;;;;2.90;2.20;;;12.10;99.90;;;13.06;100.00;98725.19;5045702;28;20950;-78
2023/09/14 05:36:56;;;;;;;3.10;1.70;;;12.10;99.90;;;13.07;100.00;98723.41;5045657;28;20883;-79
2023/09/14 05:39:26;;;;;;;3.20;1.67;;;12.20;99.90;;;13.07;100.00;98736.53;5045389;28;20461;-79
2023/09/14 05:41:58;;;;;;;2.20;2.00;;;12.20;99.90;;;13.08;100.00;98735.53;5046750;28;20567;-79
2023/09/14 05:44:26;;;;;;;1.90;1.73;;;12.10;99.90;;;13.15;100.00;98727.75;5050715;28;20465;-78
2023/09/14 05:46:58;;;;;;;5.23;2.20;;;12.20;99.90;;;13.19;100.00;98736.88;5047427;28;20884;-78
2023/09/14 05:49:29;;;;;;;2.77;2.00;;;12.10;99.90;;;13.19;100.00;98737.69;5050557;28;21018;-77
2023/09/14 05:52:00;;;;;;;2.17;1.87;;;12.00;99.90;;;13.17;100.00;98737.06;5049757;28;20987;-77
2023/09/14 05:54:29;;;;;;;2.90;2.20;;;12.10;99.90;;;13.17;100.00;98726.56;5048655;28;20592;-78
2023/09/14 05:57:00;;;;;;;5.00;2.00;;;12.10;99.90;;;13.17;100.00;98729.19;5047718;28;20465;-77
2023/09/14 05:59:30;;;;;;;3.17;1.80;;;12.20;99.90;;;13.20;100.00;98736.69;5046846;28;20544;-78
2023/09/14 06:02:02;;;;;;;2.03;1.83;;;12.10;99.90;;;13.23;100.00;98731.06;5048937;28;20452;-76
2023/09/14 06:04:31;;;;;;;2.33;1.97;;;12.20;99.90;;;13.25;100.00;98729.06;5046489;28;20898;-77
2023/09/14 06:07:02;;;;;;;5.23;2.13;;;12.20;99.90;;;13.16;100.00;98727.53;5047628;28;20491;-77
2023/09/14 06:09:32;;;;;;;3.70;1.70;;;12.30;99.90;;;13.13;100.00;98727.94;5044792;28;20457;-76
2023/09/14 06:12:04;;;;;;;2.20;1.80;;;12.30;99.90;;;13.10;100.00;98730.94;5045665;28;20472;-76
2023/09/14 06:14:36;;;;;;;3.13;2.00;;;12.30;99.90;;;13.19;100.00;98723.75;5046976;28;20462;-77
2023/09/14 06:17:06;;;;;;;4.27;2.30;;;12.30;99.90;;;13.17;100.00;98737.06;5046537;28;20478;-76
2023/09/14 06:19:37;;;;;;;3.23;1.70;;;12.30;99.90;;;13.14;100.00;98726.13;5048221;28;20485;-77
2023/09/14 06:22:08;;;;;;;2.93;2.13;;;12.40;99.90;;;13.20;100.00;98735.88;5043437;28;20480;-77
2023/09/14 06:24:38;;;;;;;2.67;1.97;;;12.40;99.90;;;13.19;100.00;98747.41;5047716;28;20461;-77
2023/09/14 06:27:09;;;;;;;9.90;1.90;;;12.50;99.90;;;13.29;100.00;98753.97;5043897;28;20580;-77
2023/09/14 06:29:39;;;;;;;1.97;1.70;;;12.50;99.90;;;13.29;100.00;98745.28;5046961;28;20472;-76
2023/09/14 06:32:10;;;;;;;2.33;1.80;;;12.50;99.90;;;13.32;100.00;98745.72;5044927;28;20461;-77
2023/09/14 06:34:40;;;;;;;3.60;2.23;;;12.40;99.90;;;13.30;100.00;98747.69;5046743;28;20962;-76
2023/09/14 06:37:10;;;;;;;2.87;2.00;;;12.50;99.90;;;13.36;100.00;98744.31;5046000;28;20519;-77
2023/09/14 06:39:39;;;;;;;2.07;1.87;;;12.50;99.90;;;13.45;100.00;98742.38;5045213;28;20496;-77
2023/09/14 06:42:12;;;;;;;9.43;2.50;;;12.50;99.90;;;13.52;100.00;98746.72;5043430;28;20473;-77
2023/09/14 06:44:43;;;;;;;2.03;1.50;;;12.60;99.90;;;13.55;100.00;98748.97;5044481;28;20450;-77
2023/09/14 06:47:13;;;;;;;3.00;1.93;;;12.60;99.90;;;13.59;100.00;98747.59;5040939;28;20492;-77
2023/09/14 06:49:44;;;;;;;6.43;1.83;;;12.60;99.90;;;13.62;100.00;98741.13;5044321;28;20476;-77
2023/09/14 06:52:14;;;;;;;13.77;1.80;;;12.70;99.90;;;13.67;100.00;98746.66;5043460;28;20468;-77
2023/09/14 06:54:45;;;;;;;9.27;5.27;;;12.70;99.90;;;13.68;100.00;98748.25;5043768;28;21227;-78
2023/09/14 06:57:17;;;;;;;4.40;2.90;;;12.80;99.90;;;13.73;100.00;98747.69;5034329;28;20472;-78
2023/09/14 06:59:47;;;;;;;5.20;1.90;;;12.80;99.90;;;13.80;100.00;98753.81;5047506;28;20891;-78
2023/09/14 07:02:16;;;;;;;4.23;1.97;;;12.80;99.90;;;13.84;100.00;98755.06;5044511;28;20501;-79
2023/09/14 07:04:47;;;;;;;4.13;1.90;;;12.90;99.90;;;13.87;100.00;98749.44;5038579;28;20530;-78
2023/09/14 07:07:16;;;;;;;3.23;2.10;;;12.90;99.90;;;13.91;100.00;98750.69;5043421;28;20486;-78
2023/09/14 07:09:45;;;;;;;7.00;2.47;;;13.00;99.90;;;13.98;100.00;98747.09;5044511;28;20497;-78
2023/09/14 07:12:15;;;;;;;2.27;1.83;;;13.00;99.90;;;14.00;100.00;98747.72;5041515;28;20457;-78
2023/09/14 07:14:45;;;;;;;9.33;4.27;;;13.00;99.90;;;14.01;100.00;98743.28;5048044;28;20456;-77
2023/09/14 07:17:17;;;;;;;4.53;2.57;;;13.00;99.90;;;14.05;100.00;98744.50;5043868;28;21040;-78
2023/09/14 07:19:48;;;;;;;7.07;2.00;;;13.10;99.90;;;14.07;100.00;98750.38;5042912;28;20516;-78
2023/09/14 07:22:19;;;;;;;4.73;2.10;;;13.10;99.90;;;14.11;100.00;98755.06;5041083;28;20458;-79
2023/09/14 07:24:50;;;;;;;5.93;3.30;;;13.20;99.90;;;14.15;100.00;98747.63;5045526;28;20491;-78
2023/09/14 07:27:22;;;;;;;3.00;2.37;;;13.20;99.90;;;14.18;100.00;98741.97;5041728;28;20518;-78
2023/09/14 07:29:52;;;;;;;2.03;1.83;;;13.30;99.90;;;14.18;100.00;98746.41;5045832;28;20535;-79
2023/09/14 07:32:22;;;;;;;2.30;2.10;;;13.40;99.90;;;14.25;100.00;98749.91;5039421;28;21235;-78
2023/09/14 07:34:52;;;;;;;2.93;2.00;;;13.40;99.90;;;14.30;100.00;98740.41;5043802;28;20553;-78
2023/09/14 07:37:21;;;;;;;3.93;1.97;;;13.40;99.90;;;14.35;100.00;98748.59;5043397;28;20489;-78
2023/09/14 07:39:52;;;;;;;4.80;2.93;;;13.40;99.90;;;14.43;100.00;98755.50;5044202;28;20460;-80
2023/09/14 07:42:24;;;;;;;3.10;2.20;;;13.50;99.90;;;14.49;100.00;98745.03;5045685;28;21143;-79
2023/09/14 07:44:55;;;;;;;4.90;2.00;;;13.60;99.90;;;14.55;100.00;98748.69;5042925;28;21075;-80
2023/09/14 07:47:28;;;;;;;5.70;2.33;;;13.60;99.90;;;14.60;100.00;98752.38;5041900;28;20542;-78
2023/09/14 07:49:58;;;;;;;4.83;2.17;;;13.70;99.90;;;14.65;100.00;98748.34;5048490;28;20468;-79
2023/09/14 07:52:28;;;;;;;7.47;2.40;;;13.80;99.90;;;14.68;100.00;98758.47;5048037;28;20980;-78
2023/09/14 07:55:00;;;;;;;4.60;1.77;;;13.80;99.90;;;14.73;100.00;98763.97;5046652;28;20542;-79
2023/09/14 07:57:32;;;;;;;4.03;2.57;;;13.80;99.90;;;14.77;100.00;98771.28;5046571;28;20905;-78
2023/09/14 08:00:03;;;;;;;3.50;2.00;;;13.90;99.90;;;14.81;100.00;98769.06;5051048;28;20460;-79
2023/09/14 08:02:33;;;;;;;3.47;2.20;;;13.90;99.90;;;14.81;100.00;98763.81;5048318;28;20591;-79
2023/09/14 08:05:04;;;;;;;2.87;2.00;;;14.10;99.90;;;14.87;100.00;98766.47;5046844;28;20456;-78
2023/09/14 08:07:34;;;;;;;4.30;2.07;;;14.10;99.90;;;14.92;100.00;98766.69;5048135;28;20936;-79
2023/09/14 08:10:07;;;;;;;3.87;2.07;;;14.10;99.90;;;14.98;100.00;98767.72;5048420;28;20981;-79
2023/09/14 08:12:38;;;;;;;5.33;2.30;;;14.10;99.90;;;15.01;100.00;98759.41;5046815;28;20461;-79
2023/09/14 08:15:09;;;;;;;6.33;2.10;;;14.20;99.90;;;15.07;100.00;98763.88;5042368;28;20513;-79
2023/09/14 08:17:40;;;;;;;4.30;2.13;;;14.30;99.90;;;15.12;100.00;98758.84;5046758;28;20523;-79
2023/09/14 08:20:11;;;;;;;5.47;2.70;;;14.30;99.90;;;15.15;100.00;98763.72;5044509;28;20467;-79
2023/09/14 08:22:41;;;;;;;7.43;2.10;;;14.40;99.90;;;15.19;100.00;98762.31;5047431;28;20974;-79
2023/09/14 08:25:11;;;;;;;4.10;2.10;;;14.50;99.90;;;15.24;100.00;98772.28;5044786;28;20960;-79
2023/09/14 08:27:43;;;;;;;3.53;1.93;;;14.50;99.90;;;15.30;100.00;98764.38;5050425;28;20598;-79
2023/09/14 08:30:15;;;;;;;10.17;2.63;;;14.60;99.90;;;15.34;100.00;98772.69;5049036;28;20460;-79
2023/09/14 08:32:46;;;;;;;5.10;2.20;;;14.60;99.90;;;15.39;100.00;98772.91;5047681;28;20497;-78
2023/09/14 08:35:44;;;;;;;5.27;2.40;;;14.70;99.90;;;15.43;100.00;98774.13;5047474;28;20461;-79
2023/09/14 08:38:15;;;;;;;9.80;2.43;;;14.80;99.90;;;15.47;100.00;98776.19;5043812;28;20559;-78
2023/09/14 08:40:53;;;;;;;8.20;2.43;;;14.80;99.90;;;15.53;100.00;98772.75;5042166;28;20460;-79
2023/09/14 08:43:27;;;;;;;11.40;2.10;;;14.90;99.90;;;15.58;100.00;98772.97;5040742;28;21256;-78
2023/09/14 08:45:59;;;;;;;2.53;1.80;;;15.00;99.90;;;15.61;100.00;98766.50;5047873;28;20538;-80
2023/09/14 08:48:33;;;;;;;3.10;1.83;;;15.00;99.90;;;15.63;100.00;98771.53;5042776;28;20470;-78
2023/09/14 08:51:05;;;;;;;3.20;2.13;;;15.10;99.90;;;15.67;100.00;98770.13;5043064;28;20461;-78
2023/09/14 08:53:36;;;;;;;5.37;1.77;;;15.10;99.90;;;15.69;100.00;98773.41;5041439;28;20484;-78
2023/09/14 08:56:07;;;;;;;2.93;2.03;;;15.20;99.90;;;15.73;100.00;98769.31;5043447;28;20514;-77
2023/09/14 08:58:39;;;;;;;4.10;1.83;;;15.20;99.90;;;15.80;100.00;98776.22;5048356;28;20465;-78
2023/09/14 09:01:13;;;;;;;10.00;2.37;;;15.20;99.90;;;15.86;100.00;98774.63;5040301;28;20552;-78
2023/09/14 09:03:43;;;;;;;4.00;2.03;;;15.30;99.90;;;15.93;100.00;98764.91;5042866;28;20457;-79
2023/09/14 09:06:14;;;;;;;6.73;2.23;;;15.30;99.90;;;15.97;100.00;98771.34;5041186;28;20462;-78
2023/09/14 09:08:43;;;;;;;7.53;2.40;;;15.40;99.90;;;15.99;100.00;98774.63;5041202;28;20853;-78
2023/09/14 09:11:14;;;;;;;9.13;2.00;;;15.40;99.90;;;16.03;100.00;98776.66;5042959;28;20473;-78
2023/09/14 09:13:46;;;;;;;2.70;1.80;;;15.50;99.90;;;16.05;100.00;98771.16;5043342;28;20468;-78
2023/09/14 09:16:17;;;;;;;3.00;2.07;;;15.50;99.90;;;16.07;100.00;98766.47;5043432;28;20483;-78
2023/09/14 09:19:05;;;;;;;3.73;1.90;;;15.50;99.90;;;16.07;100.00;98766.47;5043196;28;20492;-78
2023/09/14 09:21:38;;;;;;;5.07;2.07;;;15.50;99.90;;;16.10;100.00;98769.53;5041669;28;20564;-78
2023/09/14 09:24:10;;;;;;;5.97;2.07;;;15.50;99.90;;;16.17;100.00;98766.91;5041005;28;20523;-78
2023/09/14 09:26:41;;;;;;;6.00;1.53;;;15.60;99.90;;;16.22;100.00;98758.34;5043917;28;20468;-77
2023/09/14 09:29:17;;;;;;;3.33;1.63;;;15.60;99.90;;;16.27;100.00;98756.75;5045956;28;20576;-78
2023/09/14 09:31:50;;;;;;;3.20;1.80;;;15.50;99.90;;;16.33;100.00;98758.56;5043670;28;20479;-77
2023/09/14 09:34:28;;;;;;;3.30;1.70;;;15.60;99.90;;;16.34;100.00;98756.72;5039969;28;20472;-79
2023/09/14 09:36:59;;;;;;;3.93;2.00;;;15.60;99.90;;;16.39;100.00;98762.19;5043146;28;20471;-78
2023/09/14 09:39:30;;;;;;;84.80;43.13;;;15.60;99.90;;;16.39;100.00;98759.53;5042658;28;20454;-78
2023/09/14 09:42:00;;;;;;;9.40;5.33;;;15.60;99.90;;;16.43;100.00;98760.75;5040595;28;20546;-78
2023/09/14 09:44:33;;;;;;;5.27;2.13;;;15.60;99.90;;;16.46;100.00;98755.88;5039780;28;20552;-79
2023/09/14 09:47:04;;;;;;;3.93;2.00;;;15.60;99.90;;;16.51;100.00;98755.25;5042443;28;20465;-78
2023/09/14 09:49:34;;;;;;;2.03;1.40;;;15.80;99.90;;;16.58;100.00;98751.63;5041652;28;20609;-79
2023/09/14 09:52:09;;;;;;;2.70;1.67;;;15.90;99.90;;;16.66;100.00;98749.78;5042896;28;20468;-78
2023/09/14 09:54:40;;;;;;;4.43;2.10;;;15.90;99.90;;;16.70;100.00;98745.66;5045384;28;20485;-78
2023/09/14 09:57:10;;;;;;;3.30;1.70;;;15.90;99.90;;;16.74;100.00;98749.53;5044321;28;20545;-79
2023/09/14 09:59:42;;;;;;;2.50;1.53;;;16.00;99.90;;;16.75;100.00;98749.31;5046556;28;20461;-79
2023/09/14 10:02:14;;;;;;;2.60;1.40;;;16.00;99.90;;;16.79;100.00;98739.97;5040067;28;20611;-77
2023/09/14 10:04:53;;;;;;;2.23;1.57;;;16.00;99.90;;;16.76;100.00;98743.03;5040634;28;20463;-77
2023/09/14 10:07:23;;;;;;;2.67;1.67;;;16.10;99.90;;;16.79;100.00;98745.25;5044900;28;20493;-78
2023/09/14 10:09:53;;;;;;;12.83;1.77;;;16.10;99.90;;;16.85;100.00;98743.59;5044298;28;20480;-77
2023/09/14 10:12:27;;;;;;;2.63;1.47;;;16.10;99.90;;;16.87;100.00;98737.06;5037519;28;20597;-79
2023/09/14 10:15:00;;;;;;;56.03;25.60;;;16.20;99.90;;;16.90;100.00;98731.34;5045025;28;20469;-79
2023/09/14 10:17:32;;;;;;;5.53;2.20;;;16.20;99.90;;;16.92;100.00;98728.53;5045346;28;20478;-76
2023/09/14 10:20:05;;;;;;;4.30;1.60;;;16.10;99.90;;;16.94;100.00;98737.84;5049552;28;20860;-79
2023/09/14 10:22:37;;;;;;;1.83;1.47;;;16.10;99.90;;;17.01;100.00;98737.81;5042124;28;20461;-78
2023/09/14 10:25:09;;;;;;;6.07;2.13;;;16.20;99.90;;;17.02;100.00;98734.16;5040716;28;20470;-78
2023/09/14 10:27:41;;;;;;;3.63;1.70;;;16.30;99.90;;;17.06;100.00;98732.72;5040135;28;20499;-80
2023/09/14 10:30:18;;;;;;;8.40;1.97;;;16.30;99.90;;;17.12;100.00;98729.22;5041368;28;20509;-79